Time;durP1;ratioP1;P1;durP2;ratioP2;P2;SDS_P1;SDS_P2;PMS_P1;PMS_P2;Temp;Humidity;BMP_temperature;BMP_pressure;BME280_temperature;BME280_humidity;BME280_pressure;Samples;Min_cycle;Max_cycle;Signal;HPM_P1;HPM_P2
2022/06/12 00:02:18;;;;;;;2.87;2.67;;;23.70;55.00;;;;;;5091433;28;20397;-65
2022/06/12 00:04:44;;;;;;;3.00;2.70;;;23.70;54.90;;;;;;5091455;28;20394;-65
2022/06/12 00:07:09;;;;;;;3.13;2.50;;;23.70;54.90;;;;;;5090093;28;20401;-65
2022/06/12 00:09:35;;;;;;;3.33;2.67;;;23.60;54.90;;;;;;5091018;28;20904;-65
2022/06/12 00:12:01;;;;;;;2.80;2.60;;;23.70;54.90;;;;;;5091342;28;20387;-65
2022/06/12 00:14:26;;;;;;;2.70;2.50;;;23.60;55.00;;;;;;5091394;28;20409;-65
2022/06/12 00:16:54;;;;;;;3.72;2.70;;;23.70;55.00;;;;;;5091191;28;20471;-66
2022/06/12 00:19:20;;;;;;;3.03;2.72;;;23.60;54.90;;;;;;5091010;28;20394;-66
2022/06/12 00:21:46;;;;;;;2.95;2.45;;;23.60;54.90;;;;;;5091087;28;21051;-66
2022/06/12 00:24:16;;;;;;;2.85;2.65;;;23.60;54.80;;;;;;5091240;28;20866;-65
2022/06/12 00:26:48;;;;;;;3.00;2.80;;;23.60;54.80;;;;;;5091256;28;20420;-65
2022/06/12 00:29:18;;;;;;;2.78;2.55;;;23.60;54.90;;;;;;5091243;28;20394;-65
2022/06/12 00:31:48;;;;;;;2.60;2.40;;;23.60;54.90;;;;;;5090794;28;20382;-65
2022/06/12 00:34:16;;;;;;;3.00;2.70;;;23.60;54.80;;;;;;5089731;28;20739;-66
2022/06/12 00:36:42;;;;;;;2.78;2.47;;;23.60;54.90;;;;;;5089739;28;20406;-66
2022/06/12 00:39:08;;;;;;;2.90;2.60;;;23.60;54.90;;;;;;5090377;28;20438;-66
2022/06/12 00:41:35;;;;;;;3.17;2.70;;;23.60;54.90;;;;;;5090333;28;20378;-66
2022/06/12 00:44:02;;;;;;;2.80;2.60;;;23.60;54.90;;;;;;5091032;28;20389;-66
2022/06/12 00:46:49;;;;;;;2.75;2.55;;;23.60;54.90;;;;;;5091056;28;20421;-66
2022/06/12 00:49:24;;;;;;;3.20;2.60;;;23.60;54.80;;;;;;5090990;28;20574;-66
2022/06/12 00:51:54;;;;;;;2.63;2.42;;;23.60;54.80;;;;;;5090715;28;20374;-66
2022/06/12 00:54:22;;;;;;;3.00;2.70;;;23.60;54.90;;;;;;5090944;28;20800;-66
2022/06/12 00:56:51;;;;;;;2.65;2.45;;;23.60;54.90;;;;;;5089622;28;20782;-65
2022/06/12 00:59:32;;;;;;;2.70;2.50;;;23.50;54.80;;;;;;5090502;28;20724;-66
2022/06/12 01:01:58;;;;;;;2.88;2.50;;;23.60;54.90;;;;;;5094538;28;20466;-66
2022/06/12 01:07:15;;;;;;;3.10;2.80;;;23.50;54.80;;;;;;5094448;28;20397;-66
2022/06/12 01:09:44;;;;;;;2.95;2.67;;;23.50;55.40;;;;;;5093973;28;20425;-65
2022/06/12 01:12:17;;;;;;;2.85;2.65;;;23.50;54.80;;;;;;5094252;28;20470;-66
2022/06/12 01:14:49;;;;;;;2.72;2.53;;;23.50;54.80;;;;;;5094365;28;20382;-65
2022/06/12 01:17:16;;;;;;;2.90;2.70;;;23.50;54.80;;;;;;5094199;28;20402;-66
2022/06/12 01:19:50;;;;;;;2.80;2.50;;;23.50;54.80;;;;;;5093835;28;20390;-65
2022/06/12 01:22:34;;;;;;;2.80;2.55;;;23.50;54.80;;;;;;5094141;28;20378;-65
2022/06/12 01:25:24;;;;;;;3.20;2.90;;;23.50;54.80;;;;;;5092674;28;20954;-66
2022/06/12 01:28:09;;;;;;;2.83;2.63;;;23.50;54.80;;;;;;5093847;28;20413;-66
2022/06/12 01:30:56;;;;;;;3.05;2.60;;;23.50;54.70;;;;;;5092733;28;20455;-65
2022/06/12 01:33:24;;;;;;;2.80;2.58;;;23.50;54.70;;;;;;5094000;28;20382;-66
2022/06/12 01:36:07;;;;;;;2.80;2.58;;;23.50;54.80;;;;;;5092383;28;20382;-66
2022/06/12 01:38:38;;;;;;;2.97;2.67;;;23.50;54.80;;;;;;5092452;28;20463;-66
2022/06/12 01:41:18;;;;;;;2.75;2.55;;;23.50;54.80;;;;;;5093853;28;20866;-66
2022/06/12 01:43:46;;;;;;;2.70;2.50;;;23.50;54.80;;;;;;5093319;28;20459;-66
2022/06/12 01:46:17;;;;;;;3.15;2.50;;;23.40;54.70;;;;;;5092381;28;20410;-65
2022/06/12 01:48:47;;;;;;;2.90;2.60;;;23.50;54.80;;;;;;5093654;28;20439;-65
2022/06/12 01:51:28;;;;;;;2.85;2.55;;;23.50;54.80;;;;;;5093657;28;20416;-66
2022/06/12 01:54:09;;;;;;;2.88;2.60;;;23.40;54.60;;;;;;5092670;28;20413;-66
2022/06/12 01:57:13;;;;;;;3.05;2.75;;;23.40;54.60;;;;;;5093336;28;20766;-66
2022/06/12 01:59:49;;;;;;;3.05;2.60;;;23.50;54.60;;;;;;5093039;28;20391;-66
2022/06/12 02:02:25;;;;;;;2.75;2.45;;;23.50;54.70;;;;;;5093370;28;20430;-65
2022/06/12 02:05:15;;;;;;;3.72;2.72;;;23.40;54.60;;;;;;5093242;28;20389;-66
2022/06/12 02:07:44;;;;;;;2.93;2.73;;;23.40;54.60;;;;;;5092795;28;20414;-66
2022/06/12 02:10:23;;;;;;;3.03;2.72;;;23.40;54.60;;;;;;5091494;28;20469;-66
2022/06/12 02:13:15;;;;;;;3.67;2.63;;;23.40;54.60;;;;;;5092842;28;20746;-65
2022/06/12 02:15:53;;;;;;;3.40;2.38;;;23.40;54.60;;;;;;5091152;28;20390;-66
2022/06/12 02:18:33;;;;;;;2.58;2.38;;;23.40;54.50;;;;;;5091719;28;20839;-65
2022/06/12 02:21:21;;;;;;;2.85;2.65;;;23.40;54.50;;;;;;5092935;28;20382;-66
2022/06/12 02:23:55;;;;;;;3.00;2.70;;;23.40;54.50;;;;;;5092605;28;20378;-65
2022/06/12 02:26:26;;;;;;;2.85;2.55;;;23.40;54.60;;;;;;5092716;28;20378;-65
2022/06/12 02:28:57;;;;;;;2.70;2.50;;;23.40;54.70;;;;;;5092863;28;20383;-65
2022/06/12 02:31:29;;;;;;;2.92;2.63;;;23.40;54.60;;;;;;5092915;28;20387;-66
2022/06/12 02:34:03;;;;;;;2.95;2.60;;;23.40;54.60;;;;;;5092386;28;20382;-65
2022/06/12 02:36:37;;;;;;;3.00;2.70;;;23.40;55.20;;;;;;5092562;28;20382;-65
2022/06/12 02:39:26;;;;;;;2.60;2.40;;;23.40;54.60;;;;;;5091349;28;20394;-66
2022/06/12 02:41:59;;;;;;;2.88;2.47;;;23.40;54.60;;;;;;5092338;28;20374;-66
2022/06/12 02:44:43;;;;;;;2.70;2.50;;;23.30;54.60;;;;;;5092891;28;20897;-66
2022/06/12 02:47:22;;;;;;;2.60;2.30;;;23.30;54.50;;;;;;5092524;28;20393;-65
2022/06/12 02:49:50;;;;;;;3.10;2.53;;;23.30;54.50;;;;;;5092009;28;20420;-66
2022/06/12 02:52:40;;;;;;;2.80;2.60;;;23.30;54.50;;;;;;5092461;28;20518;-65
2022/06/12 02:55:09;;;;;;;2.83;2.58;;;23.30;54.60;;;;;;5090817;28;20441;-65
2022/06/12 02:57:58;;;;;;;2.70;2.45;;;23.40;54.60;;;;;;5092009;28;20424;-66
2022/06/12 03:00:34;;;;;;;3.08;2.58;;;23.30;54.60;;;;;;5091040;28;20487;-65
2022/06/12 03:03:30;;;;;;;2.80;2.60;;;23.30;54.50;;;;;;5092211;28;20378;-66
2022/06/12 03:05:59;;;;;;;3.20;2.88;;;23.30;54.50;;;;;;5090504;28;20446;-65
2022/06/12 03:08:36;;;;;;;3.03;2.50;;;23.30;54.50;;;;;;5091912;28;20389;-66
2022/06/12 03:11:13;;;;;;;3.53;2.65;;;23.30;54.90;;;;;;5091704;28;20461;-65
2022/06/12 03:13:39;;;;;;;4.57;2.90;;;23.30;55.80;;;;;;5091591;28;20375;-66
2022/06/12 03:16:16;;;;;;;5.55;2.70;;;23.30;55.70;;;;;;5091957;28;20399;-66
2022/06/12 03:18:48;;;;;;;5.55;4.20;;;23.40;55.80;;;;;;5091903;28;20401;-65
2022/06/12 03:21:22;;;;;;;4.40;3.30;;;23.40;57.30;;;;;;5091775;28;20458;-65
2022/06/12 03:23:48;;;;;;;4.80;3.45;;;23.40;56.90;;;;;;5090801;28;20432;-65
2022/06/12 03:26:30;;;;;;;5.07;3.10;;;23.40;57.80;;;;;;5090558;28;20777;-66
2022/06/12 03:29:18;;;;;;;4.53;2.90;;;23.30;55.50;;;;;;5091756;28;20946;-65
2022/06/12 03:31:56;;;;;;;4.93;2.70;;;23.40;55.60;;;;;;5091356;28;20374;-65
2022/06/12 03:34:41;;;;;;;6.80;2.67;;;23.30;55.90;;;;;;5091658;28;20390;-65
2022/06/12 03:37:12;;;;;;;3.42;2.83;;;23.40;56.00;;;;;;5091607;28;21201;-65
2022/06/12 03:39:56;;;;;;;3.20;2.90;;;23.40;56.00;;;;;;5091204;28;20382;-65
2022/06/12 03:42:47;;;;;;;6.27;2.80;;;23.40;56.20;;;;;;5091704;28;20474;-65
2022/06/12 03:45:39;;;;;;;5.65;3.10;;;23.40;56.70;;;;;;5090123;28;20390;-65
2022/06/12 03:48:34;;;;;;;4.03;2.88;;;23.40;56.30;;;;;;5050639;28;21246;-65
2022/06/12 03:51:15;;;;;;;4.32;2.83;;;23.40;56.90;;;;;;5080218;28;20862;-65
2022/06/12 03:54:02;;;;;;;9.85;3.10;;;23.40;56.40;;;;;;5090441;28;20421;-65
2022/06/12 04:00:06;;;;;;;5.07;2.65;;;23.40;56.20;;;;;;5091271;28;20885;-65
2022/06/12 04:02:34;;;;;;;5.13;2.70;;;23.40;56.10;;;;;;5077419;28;20894;-65
2022/06/12 04:05:01;;;;;;;4.50;2.70;;;23.40;56.40;;;;;;5091304;28;20382;-65
2022/06/12 04:07:29;;;;;;;3.63;2.40;;;23.40;56.40;;;;;;5091406;28;20394;-65
2022/06/12 04:10:02;;;;;;;3.58;2.80;;;23.40;56.80;;;;;;5090824;28;20389;-65
2022/06/12 04:12:33;;;;;;;4.45;2.65;;;23.40;56.10;;;;;;5064637;28;20428;-65
2022/06/12 04:15:13;;;;;;;3.40;2.55;;;23.40;56.00;;;;;;5068156;28;20459;-65
2022/06/12 04:17:40;;;;;;;3.13;2.42;;;23.40;56.00;;;;;;5062881;28;20863;-65
2022/06/12 04:20:12;;;;;;;4.60;2.60;;;23.40;55.90;;;;;;5069798;28;20395;-65
2022/06/12 04:23:02;;;;;;;4.53;2.58;;;23.40;56.20;;;;;;5071116;28;20392;-65
2022/06/12 04:25:34;;;;;;;10.07;2.72;;;23.40;55.90;;;;;;5060542;28;20875;-65
2022/06/12 04:28:01;;;;;;;11.37;2.90;;;23.40;56.20;;;;;;5070596;28;20442;-66
2022/06/12 04:30:34;;;;;;;8.85;2.90;;;23.40;56.20;;;;;;5071067;28;20387;-66
2022/06/12 04:33:22;;;;;;;10.17;3.10;;;23.40;56.60;;;;;;5071032;28;20376;-65
2022/06/12 04:35:53;;;;;;;8.20;3.00;;;23.40;56.30;;;;;;5073771;28;20392;-66
2022/06/12 04:38:19;;;;;;;6.90;3.22;;;23.40;55.70;;;;;;5074584;28;20421;-66
2022/06/12 04:40:46;;;;;;;7.80;3.45;;;23.40;55.20;;;;;;5074651;28;20721;-66
2022/06/12 04:43:11;;;;;;;7.28;2.90;;;23.40;54.80;;;;;;5074381;28;20387;-66
2022/06/12 04:45:39;;;;;;;7.00;2.87;;;23.40;54.80;;;;;;5074262;28;20388;-65
2022/06/12 04:48:07;;;;;;;5.78;2.85;;;23.40;54.80;;;;;;5074302;28;20407;-66
2022/06/12 04:50:33;;;;;;;7.63;3.10;;;23.40;54.60;;;;;;5074426;28;20384;-66
2022/06/12 04:52:59;;;;;;;4.60;2.60;;;23.40;54.60;;;;;;5074408;28;20429;-66
2022/06/12 04:55:24;;;;;;;4.53;2.53;;;23.40;54.80;;;;;;5074042;28;20752;-66
2022/06/12 04:57:50;;;;;;;4.40;2.60;;;23.40;54.90;;;;;;5073765;28;20411;-65
2022/06/12 05:00:17;;;;;;;5.83;2.80;;;23.40;54.90;;;;;;5074294;28;20387;-66
2022/06/12 05:02:43;;;;;;;4.18;2.72;;;23.40;54.80;;;;;;5074158;28;20384;-66
2022/06/12 05:05:09;;;;;;;4.97;2.60;;;23.40;54.90;;;;;;5074203;28;20391;-66
2022/06/12 05:07:34;;;;;;;5.03;2.50;;;23.40;54.90;;;;;;5073940;28;20397;-66
2022/06/12 05:10:00;;;;;;;4.57;2.70;;;23.40;55.00;;;;;;5073614;28;20391;-65
2022/06/12 05:12:25;;;;;;;2.77;2.43;;;23.40;55.50;;;;;;5074140;28;20433;-66
2022/06/12 05:14:51;;;;;;;5.25;2.70;;;23.40;55.10;;;;;;5073979;28;20387;-66
2022/06/12 05:17:19;;;;;;;4.23;2.70;;;23.40;55.50;;;;;;5073896;28;20418;-66
2022/06/12 05:19:46;;;;;;;4.82;2.70;;;23.40;55.50;;;;;;5073572;28;20422;-65
2022/06/12 05:22:13;;;;;;;4.38;2.60;;;23.50;55.60;;;;;;5073896;28;20852;-66
2022/06/12 05:24:39;;;;;;;3.58;2.38;;;23.50;55.60;;;;;;5073870;28;20380;-66
2022/06/12 05:27:08;;;;;;;3.78;2.67;;;23.50;56.10;;;;;;5073486;28;20449;-66
2022/06/12 05:29:37;;;;;;;3.70;2.40;;;23.50;55.60;;;;;;5072345;28;20406;-66
2022/06/12 05:32:04;;;;;;;3.40;2.60;;;23.50;55.50;;;;;;5073353;28;20400;-66
2022/06/12 05:34:31;;;;;;;2.88;2.30;;;23.50;55.50;;;;;;5072430;28;20384;-66
2022/06/12 05:36:57;;;;;;;3.80;2.55;;;23.50;55.50;;;;;;5072309;28;20400;-66
2022/06/12 05:39:24;;;;;;;3.40;2.30;;;23.50;55.50;;;;;;5072281;28;20817;-66
2022/06/12 05:41:51;;;;;;;4.50;2.78;;;23.50;55.40;;;;;;5073049;28;20741;-66
2022/06/12 05:44:17;;;;;;;2.83;2.53;;;23.50;55.40;;;;;;5073513;28;20388;-66
2022/06/12 05:46:43;;;;;;;3.47;2.58;;;23.50;55.50;;;;;;5071743;28;20388;-66
2022/06/12 05:49:10;;;;;;;3.33;2.50;;;23.50;55.40;;;;;;5073358;28;20482;-66
2022/06/12 05:51:36;;;;;;;2.88;2.47;;;23.50;55.40;;;;;;5072030;28;20444;-66
2022/06/12 05:54:01;;;;;;;2.72;2.40;;;23.50;55.40;;;;;;5071307;28;20826;-66
2022/06/12 05:56:29;;;;;;;2.87;2.40;;;23.50;55.40;;;;;;5073014;28;20415;-66
2022/06/12 05:58:57;;;;;;;3.15;2.40;;;23.50;55.40;;;;;;5072870;28;20729;-66
2022/06/12 06:01:24;;;;;;;2.85;2.40;;;23.60;55.40;;;;;;5073248;28;20419;-66
2022/06/12 06:03:51;;;;;;;2.55;2.35;;;23.60;55.40;;;;;;5071300;28;20399;-66
2022/06/12 06:06:26;;;;;;;2.50;2.30;;;23.60;55.30;;;;;;5073124;28;20387;-66
2022/06/12 06:08:52;;;;;;;2.50;2.30;;;23.60;55.40;;;;;;5071777;28;20388;-66
2022/06/12 06:11:18;;;;;;;2.70;2.50;;;23.60;55.30;;;;;;5072904;28;20874;-66
2022/06/12 06:13:45;;;;;;;2.70;2.30;;;23.60;55.30;;;;;;5072787;28;20391;-66
2022/06/12 06:16:10;;;;;;;2.88;2.50;;;23.60;55.30;;;;;;5071675;28;20899;-66
2022/06/12 06:18:39;;;;;;;2.40;2.20;;;23.60;55.30;;;;;;5072637;28;20429;-66
2022/06/12 06:21:04;;;;;;;2.80;2.40;;;23.60;55.30;;;;;;5072783;28;20989;-66
2022/06/12 06:23:30;;;;;;;4.03;2.20;;;23.60;55.30;;;;;;5071561;28;20431;-66
2022/06/12 06:25:56;;;;;;;2.67;2.47;;;23.70;55.30;;;;;;5070953;28;20756;-66
2022/06/12 06:28:21;;;;;;;2.65;2.45;;;23.70;55.30;;;;;;5072696;28;20396;-66
2022/06/12 06:30:47;;;;;;;2.63;2.43;;;23.70;55.40;;;;;;5072709;28;20531;-66
2022/06/12 06:33:13;;;;;;;2.80;2.45;;;23.70;55.30;;;;;;5072318;28;20395;-67
2022/06/12 06:35:39;;;;;;;2.50;2.30;;;23.70;55.30;;;;;;5072475;28;20401;-66
2022/06/12 06:38:06;;;;;;;2.50;2.30;;;23.70;55.30;;;;;;5072094;28;20795;-66
2022/06/12 06:40:32;;;;;;;2.78;2.58;;;23.70;55.30;;;;;;5071143;28;20380;-66
2022/06/12 06:42:58;;;;;;;2.85;2.40;;;23.70;55.30;;;;;;5072345;28;20410;-66
2022/06/12 06:48:11;;;;;;;3.08;2.40;;;23.70;55.30;;;;;;5072269;28;20733;-66
2022/06/12 06:50:38;;;;;;;2.70;2.50;;;23.70;55.20;;;;;;5072312;28;20860;-66
2022/06/12 06:53:05;;;;;;;2.60;2.40;;;23.70;55.20;;;;;;5072217;28;20757;-66
2022/06/12 06:55:31;;;;;;;2.85;2.20;;;23.70;55.20;;;;;;5071948;28;20796;-66
2022/06/12 06:57:58;;;;;;;2.42;2.22;;;23.70;55.20;;;;;;5070709;28;20895;-66
2022/06/12 07:00:28;;;;;;;2.60;2.25;;;23.80;55.20;;;;;;5072166;28;20380;-66
2022/06/12 07:02:54;;;;;;;2.60;2.25;;;23.80;55.30;;;;;;5071928;28;20423;-66
2022/06/12 07:05:21;;;;;;;2.50;2.30;;;23.80;55.30;;;;;;5071910;28;20918;-66
2022/06/12 07:07:47;;;;;;;2.72;2.47;;;23.80;55.10;;;;;;5070405;28;20391;-66
2022/06/12 07:10:17;;;;;;;2.30;2.10;;;23.80;55.30;;;;;;5071465;28;20376;-66
2022/06/12 07:12:44;;;;;;;2.90;2.47;;;23.80;55.30;;;;;;5071543;28;20384;-66
2022/06/12 07:15:11;;;;;;;2.42;2.15;;;23.80;55.30;;;;;;5071749;28;20856;-66
2022/06/12 07:17:37;;;;;;;2.50;2.20;;;23.80;55.30;;;;;;5071755;28;20802;-66
2022/06/12 07:20:03;;;;;;;2.50;2.30;;;23.80;55.30;;;;;;5071264;28;20475;-66
2022/06/12 07:22:28;;;;;;;2.50;2.30;;;23.80;55.30;;;;;;5071823;28;20383;-66
2022/06/12 07:24:54;;;;;;;2.60;2.20;;;23.80;55.30;;;;;;5071629;28;20380;-66
2022/06/12 07:27:20;;;;;;;2.40;2.20;;;23.80;55.30;;;;;;5071593;28;20403;-67
2022/06/12 07:29:46;;;;;;;2.70;2.50;;;23.80;55.30;;;;;;5071758;28;20384;-66
2022/06/12 07:32:12;;;;;;;2.38;2.17;;;23.80;55.30;;;;;;5071371;28;20392;-66
2022/06/12 07:34:38;;;;;;;2.77;2.57;;;23.80;55.30;;;;;;5071584;28;20886;-66
2022/06/12 07:37:07;;;;;;;2.40;2.20;;;23.80;55.30;;;;;;5070108;28;20447;-66
2022/06/12 07:39:34;;;;;;;2.65;2.20;;;23.80;55.30;;;;;;5071587;28;20398;-66
2022/06/12 07:42:00;;;;;;;2.50;2.30;;;23.80;55.30;;;;;;5071060;28;20380;-66
2022/06/12 07:44:28;;;;;;;2.45;2.10;;;23.80;55.30;;;;;;5071461;28;20402;-66
2022/06/12 07:46:56;;;;;;;2.42;2.20;;;23.80;55.30;;;;;;5071415;28;20442;-66
2022/06/12 07:49:22;;;;;;;2.50;2.30;;;23.90;55.40;;;;;;5071523;28;20384;-66
2022/06/12 07:51:49;;;;;;;2.33;2.13;;;23.90;55.30;;;;;;5071129;28;20433;-65
2022/06/12 07:54:17;;;;;;;2.50;2.30;;;23.90;55.40;;;;;;5070991;28;20495;-66
2022/06/12 07:56:45;;;;;;;2.60;2.40;;;23.90;55.30;;;;;;5071331;28;20512;-66
2022/06/12 07:59:10;;;;;;;2.47;2.28;;;23.90;55.30;;;;;;5071360;28;20392;-66
2022/06/12 08:01:37;;;;;;;2.40;2.20;;;23.90;55.10;;;;;;5071384;28;20475;-67
2022/06/12 08:04:05;;;;;;;2.42;2.22;;;23.90;55.10;;;;;;5069498;28;20482;-65
2022/06/12 08:06:30;;;;;;;2.50;2.30;;;23.90;55.20;;;;;;5071207;28;20973;-66
2022/06/12 08:08:57;;;;;;;2.50;2.10;;;23.90;55.10;;;;;;5071752;28;20399;-66
2022/06/12 08:11:24;;;;;;;2.40;2.20;;;23.90;54.80;;;;;;5075251;28;20459;-66
2022/06/12 08:13:51;;;;;;;2.50;2.10;;;23.90;55.00;;;;;;5074961;28;20388;-65
2022/06/12 08:16:17;;;;;;;2.40;2.20;;;23.90;55.00;;;;;;5075156;28;20412;-66
2022/06/12 08:18:43;;;;;;;2.50;2.22;;;23.90;55.00;;;;;;5074925;28;20419;-66
2022/06/12 08:21:11;;;;;;;2.47;2.27;;;23.90;55.00;;;;;;5075073;28;20761;-66
2022/06/12 08:23:43;;;;;;;2.70;2.40;;;23.90;55.10;;;;;;5073442;28;20399;-66
2022/06/12 08:26:16;;;;;;;2.63;2.42;;;23.90;55.20;;;;;;5073944;28;20384;-66
2022/06/12 08:29:05;;;;;;;2.38;2.17;;;23.90;55.20;;;;;;5074833;28;20726;-66
2022/06/12 08:31:41;;;;;;;2.50;2.30;;;23.90;55.10;;;;;;5074943;28;20380;-66
2022/06/12 08:34:12;;;;;;;3.10;2.30;;;24.00;55.20;;;;;;5074272;28;20390;-66
2022/06/12 08:36:39;;;;;;;2.50;2.20;;;23.90;55.10;;;;;;5074779;28;20454;-66
2022/06/12 08:39:06;;;;;;;2.38;2.17;;;23.90;55.10;;;;;;5074603;28;20406;-66
2022/06/12 08:41:50;;;;;;;2.30;2.10;;;24.00;55.20;;;;;;5074667;28;20387;-66
2022/06/12 08:44:32;;;;;;;2.45;2.25;;;23.90;55.10;;;;;;5074370;28;20384;-66
2022/06/12 08:47:35;;;;;;;2.50;2.30;;;24.00;55.10;;;;;;5074630;28;20387;-66
2022/06/12 08:50:18;;;;;;;2.40;2.20;;;24.00;55.00;;;;;;5051021;28;20404;-65
2022/06/12 08:52:47;;;;;;;2.40;2.20;;;24.00;55.00;;;;;;5074446;28;20406;-66
2022/06/12 08:55:27;;;;;;;2.55;2.35;;;24.00;55.50;;;;;;5072800;28;20420;-66
2022/06/12 08:58:04;;;;;;;2.20;2.00;;;24.00;55.00;;;;;;5072795;28;20772;-65
2022/06/12 09:00:35;;;;;;;2.22;2.03;;;24.00;54.90;;;;;;5073131;28;20440;-66
2022/06/12 09:03:06;;;;;;;2.30;2.10;;;24.00;55.00;;;;;;5074328;28;20388;-66
2022/06/12 09:05:45;;;;;;;2.33;2.13;;;24.00;55.00;;;;;;5074279;28;20388;-66
2022/06/12 09:08:40;;;;;;;2.30;2.10;;;24.00;55.00;;;;;;5073863;28;20391;-66
2022/06/12 09:11:29;;;;;;;2.25;2.00;;;23.90;54.90;;;;;;5073746;28;20407;-66
2022/06/12 09:14:19;;;;;;;2.40;2.20;;;24.00;54.90;;;;;;5072608;28;20479;-66
2022/06/12 09:17:10;;;;;;;2.28;2.08;;;24.00;54.90;;;;;;5073940;28;20419;-66
2022/06/12 09:19:54;;;;;;;2.60;2.40;;;24.00;54.80;;;;;;5073535;28;20388;-66
2022/06/12 09:22:31;;;;;;;2.35;2.13;;;24.00;54.80;;;;;;5073728;28;21009;-66
2022/06/12 09:24:59;;;;;;;2.20;2.00;;;24.00;54.80;;;;;;5073861;28;20467;-66
2022/06/12 09:27:54;;;;;;;2.47;2.20;;;24.00;54.80;;;;;;5073918;28;20751;-66
2022/06/12 09:30:41;;;;;;;2.40;2.10;;;24.00;54.70;;;;;;5073127;28;20883;-66
2022/06/12 09:33:32;;;;;;;2.40;2.20;;;24.00;54.70;;;;;;5071972;28;20424;-66
2022/06/12 09:36:26;;;;;;;2.30;2.10;;;24.00;54.70;;;;;;5072919;28;20398;-66
2022/06/12 09:39:13;;;;;;;2.50;2.30;;;24.00;54.70;;;;;;5073442;28;20407;-66
2022/06/12 09:41:44;;;;;;;2.22;2.03;;;24.00;54.70;;;;;;5073426;28;20368;-66
2022/06/12 09:44:23;;;;;;;2.35;2.15;;;24.00;54.60;;;;;;5071799;28;21035;-66
2022/06/12 09:46:48;;;;;;;2.10;1.90;;;24.00;54.50;;;;;;5073328;28;20402;-66
2022/06/12 09:49:31;;;;;;;2.37;2.17;;;24.00;54.50;;;;;;5073385;28;20877;-66
2022/06/12 09:52:02;;;;;;;2.10;1.90;;;24.00;54.40;;;;;;5073229;28;20419;-65
2022/06/12 09:54:31;;;;;;;2.40;2.20;;;24.00;54.40;;;;;;5073282;28;20399;-66
2022/06/12 09:57:17;;;;;;;2.22;2.03;;;24.00;54.40;;;;;;5073232;28;20883;-67
2022/06/12 10:00:11;;;;;;;2.35;2.08;;;24.00;54.30;;;;;;5071928;28;20406;-66
2022/06/12 10:02:43;;;;;;;2.30;2.10;;;24.00;54.30;;;;;;5073169;28;20864;-66
2022/06/12 10:05:35;;;;;;;2.30;2.10;;;24.00;54.20;;;;;;5071862;28;20446;-66
2022/06/12 10:08:05;;;;;;;2.20;1.90;;;24.00;54.20;;;;;;5072213;28;20458;-66
2022/06/12 10:10:43;;;;;;;2.22;2.03;;;24.00;54.20;;;;;;5072931;28;20395;-66
2022/06/12 10:13:14;;;;;;;2.80;2.15;;;24.00;54.20;;;;;;5072982;28;20455;-66
2022/06/12 10:15:57;;;;;;;2.28;2.08;;;24.00;54.20;;;;;;5073007;28;20392;-66
2022/06/12 10:18:28;;;;;;;2.38;2.17;;;24.00;54.30;;;;;;5072704;28;20507;-66
2022/06/12 10:21:00;;;;;;;2.30;2.10;;;24.00;54.20;;;;;;5072792;28;20376;-66
2022/06/12 10:23:26;;;;;;;2.30;2.10;;;23.90;54.20;;;;;;5072551;28;20464;-66
2022/06/12 10:25:59;;;;;;;2.20;2.00;;;24.00;54.20;;;;;;5072399;28;20392;-65
2022/06/12 10:28:29;;;;;;;2.42;2.22;;;24.00;54.30;;;;;;5071145;28;20396;-66
2022/06/12 10:31:04;;;;;;;2.40;2.20;;;24.00;54.20;;;;;;5071233;28;20876;-66
2022/06/12 10:33:42;;;;;;;2.40;2.20;;;24.00;54.20;;;;;;5072196;28;20384;-66
2022/06/12 10:36:20;;;;;;;2.40;2.20;;;24.00;54.20;;;;;;5072033;28;20416;-65
2022/06/12 10:38:45;;;;;;;2.37;2.17;;;24.00;54.20;;;;;;5072354;28;20452;-66
2022/06/12 10:41:25;;;;;;;2.28;2.08;;;24.00;54.20;;;;;;5071102;28;20399;-66
2022/06/12 10:43:54;;;;;;;2.53;1.95;;;23.90;54.20;;;;;;5072352;28;20791;-66
2022/06/12 10:46:31;;;;;;;2.20;2.00;;;24.00;54.20;;;;;;5070730;28;20487;-66
2022/06/12 10:49:01;;;;;;;2.35;2.00;;;24.00;54.20;;;;;;5072187;28;20402;-66
2022/06/12 10:51:40;;;;;;;2.40;2.20;;;23.90;54.10;;;;;;5072179;28;20391;-66
2022/06/12 10:54:27;;;;;;;2.30;2.10;;;23.90;54.10;;;;;;5109039;27;20358;-66
2022/06/12 10:56:56;;;;;;;1.98;1.85;;;24.00;54.10;;;;;;5109295;28;20388;-66
2022/06/12 11:00:01;;;;;;;2.42;2.22;;;23.90;54.10;;;;;;5109355;28;20390;-66
2022/06/12 11:03:06;;;;;;;2.30;2.10;;;24.00;54.10;;;;;;5102903;28;20823;-66
2022/06/12 11:05:51;;;;;;;2.30;1.90;;;24.00;54.10;;;;;;5109202;28;20770;-66
2022/06/12 11:08:34;;;;;;;2.20;2.00;;;24.00;54.10;;;;;;5108732;28;20373;-66
2022/06/12 11:11:20;;;;;;;2.30;2.10;;;24.00;54.10;;;;;;5107521;28;20476;-66
2022/06/12 11:14:20;;;;;;;2.13;1.92;;;24.00;54.10;;;;;;5107402;28;20413;-66
2022/06/12 11:16:55;;;;;;;2.33;2.13;;;24.00;54.10;;;;;;5107546;28;20385;-66
2022/06/12 11:19:42;;;;;;;2.77;2.27;;;24.00;54.00;;;;;;5107616;28;20417;-66
2022/06/12 11:22:23;;;;;;;2.50;2.30;;;24.00;54.10;;;;;;5108362;28;20393;-66
2022/06/12 11:25:07;;;;;;;2.38;2.17;;;24.00;54.10;;;;;;5108785;28;20380;-66
2022/06/12 11:27:47;;;;;;;2.20;2.00;;;24.00;54.10;;;;;;5107393;28;20727;-66
2022/06/12 11:30:21;;;;;;;2.30;2.10;;;24.00;54.00;;;;;;5108215;28;20382;-66
2022/06/12 11:33:05;;;;;;;2.20;2.00;;;24.00;53.90;;;;;;5108572;28;21042;-66
2022/06/12 11:35:55;;;;;;;2.33;2.15;;;24.00;53.90;;;;;;5107313;28;20419;-66
2022/06/12 11:38:39;;;;;;;2.20;2.00;;;24.00;53.90;;;;;;5108272;28;20397;-66
2022/06/12 11:41:34;;;;;;;2.78;2.10;;;24.00;54.00;;;;;;5108463;28;20409;-66
2022/06/12 11:44:45;;;;;;;2.20;2.00;;;24.00;53.90;;;;;;5108063;28;20511;-65
2022/06/12 11:47:39;;;;;;;2.50;2.10;;;24.00;53.90;;;;;;5108379;28;20374;-66
2022/06/12 11:50:26;;;;;;;2.33;2.13;;;24.00;53.80;;;;;;5106492;28;20773;-66
2022/06/12 11:53:11;;;;;;;2.30;2.10;;;24.00;53.80;;;;;;5107830;28;20410;-66
2022/06/12 11:55:49;;;;;;;2.22;2.03;;;24.00;53.80;;;;;;5108122;28;20451;-66
2022/06/12 11:58:31;;;;;;;2.30;2.10;;;24.00;53.80;;;;;;5107760;28;20380;-66
2022/06/12 12:01:16;;;;;;;2.20;2.00;;;24.10;53.90;;;;;;5108012;28;20382;-66
2022/06/12 12:03:44;;;;;;;2.30;2.10;;;24.10;53.90;;;;;;5103789;28;20947;-66
2022/06/12 12:06:29;;;;;;;2.10;1.90;;;24.10;53.90;;;;;;5093920;28;20866;-65
2022/06/12 12:08:58;;;;;;;2.05;1.95;;;24.10;53.90;;;;;;5092968;28;20398;-66
2022/06/12 12:11:32;;;;;;;1.98;1.83;;;24.10;53.90;;;;;;5094375;28;20467;-66
2022/06/12 12:14:01;;;;;;;2.25;2.05;;;24.10;53.90;;;;;;5093822;28;20414;-66
2022/06/12 12:17:02;;;;;;;2.28;2.08;;;24.10;53.80;;;;;;5094077;28;20476;-66
2022/06/12 12:19:36;;;;;;;2.40;2.20;;;24.10;53.40;;;;;;5094250;28;20393;-66
2022/06/12 12:22:08;;;;;;;2.25;2.05;;;24.10;53.80;;;;;;5093929;28;20855;-65
2022/06/12 12:25:02;;;;;;;2.30;2.10;;;24.10;53.80;;;;;;5094021;28;20382;-66
2022/06/12 12:27:40;;;;;;;2.08;1.90;;;24.10;53.80;;;;;;5092628;28;20393;-66
2022/06/12 12:30:41;;;;;;;2.27;2.07;;;24.10;53.80;;;;;;5093478;28;20393;-66
2022/06/12 12:33:16;;;;;;;2.22;2.03;;;24.10;53.80;;;;;;5051361;28;20952;-66
2022/06/12 12:41:17;;;;;;;2.20;2.00;;;24.20;53.80;;;;;;5094032;28;20722;-66
2022/06/12 12:43:55;;;;;;;2.38;2.00;;;24.20;53.80;;;;;;5093641;28;20393;-66
2022/06/12 12:46:23;;;;;;;2.30;2.10;;;24.20;53.80;;;;;;5093214;28;21092;-66
2022/06/12 12:48:53;;;;;;;2.22;2.03;;;24.20;53.80;;;;;;5093586;28;20398;-66
2022/06/12 12:51:35;;;;;;;3.22;2.20;;;24.20;53.90;;;;;;5093605;28;20386;-66
2022/06/12 12:54:19;;;;;;;3.28;1.90;;;24.20;53.80;;;;;;5092772;28;20450;-65
2022/06/12 12:57:01;;;;;;;5.07;2.67;;;24.40;55.70;;;;;;5092946;28;20390;-65
2022/06/12 12:59:39;;;;;;;5.72;3.35;;;24.40;54.60;;;;;;5093607;28;20746;-65
2022/06/12 13:02:28;;;;;;;6.53;3.37;;;24.40;55.20;;;;;;5093040;28;20382;-65
2022/06/12 13:05:00;;;;;;;3.20;2.63;;;24.40;55.10;;;;;;5093079;28;20390;-65
2022/06/12 13:07:41;;;;;;;6.03;2.65;;;24.40;54.70;;;;;;5092882;28;20374;-65
2022/06/12 13:10:30;;;;;;;3.70;2.80;;;24.40;53.90;;;;;;5091578;28;20416;-65
2022/06/12 13:13:17;;;;;;;3.58;2.50;;;24.40;53.90;;;;;;5119305;28;20428;-90
2022/06/12 13:15:48;;;;;;;3.35;2.50;;;24.40;53.40;;;;;;5118440;28;20390;-82
2022/06/12 13:18:35;;;;;;;4.10;2.50;;;24.30;53.40;;;;;;5119238;28;20382;-96
2022/06/12 13:21:22;;;;;;;3.30;2.50;;;24.40;53.40;;;;;;5127071;22;20482;-65
2022/06/12 13:24:24;;;;;;;6.27;2.50;;;24.30;53.50;;;;;;5030297;28;20929;-65
2022/06/12 13:26:50;;;;;;;3.30;2.40;;;24.30;53.80;;;;;;5031433;28;20399;-65
2022/06/12 13:29:19;;;;;;;3.13;2.60;;;24.40;53.90;;;;;;5032685;28;20383;-65
2022/06/12 13:32:05;;;;;;;4.50;2.65;;;24.40;53.90;;;;;;5032695;28;20813;-65
2022/06/12 13:34:31;;;;;;;4.95;2.60;;;24.40;53.80;;;;;;5034143;28;20418;-66
2022/06/12 13:36:59;;;;;;;3.55;2.50;;;24.40;53.80;;;;;;5032532;28;20394;-65
2022/06/12 13:39:36;;;;;;;3.55;2.47;;;24.40;53.80;;;;;;5032812;28;20406;-65